createdAt,value
2016-12-14T00:00:40.479Z,15.61
2016-12-14T00:01:50.449Z,15.9
2016-12-14T00:03:00.411Z,15.9
2016-12-14T00:04:10.693Z,15.7
2016-12-14T00:05:20.351Z,15.7
2016-12-14T00:06:30.635Z,15.8
2016-12-14T00:07:40.632Z,15.8
2016-12-14T00:08:50.907Z,15.61
2016-12-14T00:10:00.548Z,15.8
2016-12-14T00:11:10.494Z,15.8
2016-12-14T00:12:20.770Z,15.8
2016-12-14T00:13:31.025Z,15.61
2016-12-14T00:14:41.285Z,15.7
2016-12-14T00:15:51.551Z,15.7
2016-12-14T00:17:01.211Z,15.7
2016-12-14T00:18:11.176Z,15.7
2016-12-14T00:19:21.467Z,15.7
2016-12-14T00:20:31.726Z,15.7
2016-12-14T00:21:41.685Z,15.8
2016-12-14T00:22:51.642Z,15.7
2016-12-14T00:24:01.893Z,15.7
2016-12-14T00:25:11.890Z,15.7
2016-12-14T00:26:21.537Z,15.61
2016-12-14T00:27:31.179Z,15.7
2016-12-14T00:28:40.827Z,15.7
2016-12-14T00:29:51.093Z,15.61
2016-12-14T00:31:01.048Z,15.52
2016-12-14T00:32:11.310Z,15.7
2016-12-14T00:33:21.585Z,15.9
2016-12-14T00:34:31.554Z,15.61
2016-12-14T00:35:41.202Z,15.61
2016-12-14T00:36:51.201Z,15.8
2016-12-14T00:38:01.179Z,15.99
2016-12-14T00:39:11.115Z,15.9
2016-12-14T00:40:20.762Z,15.9
2016-12-14T00:41:30.427Z,15.99
2016-12-14T00:42:40.391Z,15.9
2016-12-14T00:43:50.664Z,15.99
2016-12-14T00:45:00.321Z,15.9
2016-12-14T00:46:10.274Z,15.99
2016-12-14T00:47:20.225Z,15.99
2016-12-14T00:48:30.487Z,15.99
2016-12-14T00:49:40.453Z,15.9
2016-12-14T00:50:50.712Z,15.9
2016-12-14T00:52:00.988Z,15.99
2016-12-14T00:53:10.962Z,16.19
2016-12-14T00:54:21.246Z,16.09
2016-12-14T00:55:31.218Z,16.28
2016-12-14T00:56:41.164Z,16.28
2016-12-14T00:57:51.113Z,16.09
2016-12-14T00:59:01.074Z,15.99
2016-12-14T01:00:11.384Z,16.09
2016-12-14T01:01:21.026Z,16.09
2016-12-14T01:02:31.285Z,16.09
2016-12-14T01:03:40.930Z,16.09
2016-12-14T01:04:51.199Z,16.09
2016-12-14T01:06:01.154Z,15.99
2016-12-14T01:07:11.109Z,15.99
2016-12-14T01:08:21.413Z,16.19
2016-12-14T01:09:31.673Z,15.9
2016-12-14T01:10:41.929Z,16.09
2016-12-14T01:11:52.191Z,16.09
2016-12-14T01:13:02.153Z,16.09
2016-12-14T01:14:12.119Z,16.09
2016-12-14T01:15:22.065Z,16.09
2016-12-14T01:16:32.025Z,15.9
2016-12-14T01:17:41.359Z,15.9
2016-12-14T01:18:51.356Z,15.9
2016-12-14T01:20:01.007Z,15.9
2016-12-14T01:21:11.281Z,16.09
2016-12-14T01:22:20.913Z,16.09
2016-12-14T01:23:30.866Z,15.99
2016-12-14T01:24:41.140Z,15.99
2016-12-14T01:25:51.406Z,16.19
2016-12-14T01:27:01.675Z,16.09
2016-12-14T01:28:11.326Z,15.9
2016-12-14T01:29:21.592Z,16.38
2016-12-14T01:30:31.851Z,15.8
2016-12-14T01:31:41.812Z,15.9
2016-12-14T01:32:51.768Z,15.9
2016-12-14T01:34:02.030Z,15.8
2016-12-14T01:35:12.289Z,15.9
2016-12-14T01:36:22.244Z,15.99
2016-12-14T01:37:32.206Z,16.09
2016-12-14T01:38:42.481Z,16.19
2016-12-14T01:39:52.139Z,16.19
2016-12-14T01:41:02.116Z,15.8
2016-12-14T01:42:11.456Z,16.19
2016-12-14T01:43:21.723Z,16.38
2016-12-14T01:44:31.677Z,16.38
2016-12-14T01:45:41.949Z,16.38
2016-12-14T01:46:51.629Z,16.09
2016-12-14T01:48:01.583Z,16.47
2016-12-14T01:49:11.898Z,16.47
2016-12-14T01:50:21.856Z,16.57
2016-12-14T01:51:31.501Z,16.47
2016-12-14T01:52:41.453Z,16.47
2016-12-14T01:53:51.408Z,16.57
2016-12-14T01:55:01.678Z,16.38
2016-12-14T01:56:11.328Z,16.57
2016-12-14T01:57:21.585Z,16.38
2016-12-14T01:58:31.533Z,16.38
2016-12-14T01:59:41.799Z,16.47
2016-12-14T02:00:51.776Z,16.28
2016-12-14T02:02:01.755Z,16.38
2016-12-14T02:03:11.709Z,16.47
2016-12-14T02:04:21.345Z,16.57
2016-12-14T02:05:31.649Z,16.67
2016-12-14T02:06:41.914Z,16.57
2016-12-14T02:07:51.565Z,16.57
2016-12-14T02:09:01.207Z,16.57
2016-12-14T02:10:11.194Z,16.28
2016-12-14T02:11:21.472Z,16.67
2016-12-14T02:12:31.434Z,16.38
2016-12-14T02:13:41.393Z,16.47
2016-12-14T02:14:51.655Z,16.57
2016-12-14T02:16:01.920Z,16.57
2016-12-14T02:17:11.875Z,16.67
2016-12-14T02:18:22.145Z,16.47
2016-12-14T02:19:32.415Z,16.67
2016-12-14T02:20:42.371Z,16.57
2016-12-14T02:21:52.640Z,16.67
2016-12-14T02:23:02.605Z,16.67
2016-12-14T02:24:12.567Z,16.67
2016-12-14T02:25:22.521Z,16.57
2016-12-14T02:26:32.480Z,16.57
2016-12-14T02:27:42.739Z,16.47
2016-12-14T02:28:53.014Z,16.47
2016-12-14T02:30:03.281Z,16.47
2016-12-14T02:31:13.548Z,16.38
2016-12-14T02:32:23.803Z,16.57
2016-12-14T02:33:33.760Z,16.67
2016-12-14T02:34:43.395Z,16.67
2016-12-14T02:35:53.395Z,16.77
2016-12-14T02:37:03.689Z,16.86
2016-12-14T02:38:13.638Z,16.77
2016-12-14T02:39:23.593Z,16.86
2016-12-14T02:40:33.545Z,16.86
2016-12-14T02:41:43.808Z,16.86
2016-12-14T02:42:53.769Z,16.86
2016-12-14T02:44:03.721Z,16.77
2016-12-14T02:45:13.686Z,16.77
2016-12-14T02:46:23.955Z,16.77
2016-12-14T02:47:33.906Z,16.77
2016-12-14T02:48:43.865Z,16.57
2016-12-14T02:49:54.125Z,16.77
2016-12-14T02:51:03.814Z,16.77
2016-12-14T02:52:13.766Z,16.67
2016-12-14T02:53:24.038Z,16.86
2016-12-14T02:54:34.326Z,16.86
2016-12-14T02:55:44.038Z,16.86
2016-12-14T02:56:54.005Z,16.96
2016-12-14T02:58:04.278Z,17.05
2016-12-14T02:59:14.553Z,17.15
2016-12-14T03:00:24.800Z,17.05
2016-12-14T03:01:34.755Z,16.96
2016-12-14T03:02:45.011Z,17.05
2016-12-14T03:03:55.267Z,17.05
2016-12-14T03:05:05.532Z,16.96
2016-12-14T03:06:15.794Z,17.05
2016-12-14T03:07:25.739Z,16.96
2016-12-14T03:08:36.022Z,17.05
2016-12-14T03:09:45.980Z,16.96
2016-12-14T03:10:55.622Z,17.05
2016-12-14T03:12:05.586Z,16.86
2016-12-14T03:13:14.918Z,16.96
2016-12-14T03:14:25.183Z,17.05
2016-12-14T03:15:35.443Z,16.86
2016-12-14T03:16:45.398Z,16.86
2016-12-14T03:17:55.369Z,16.77
2016-12-14T03:19:05.654Z,16.77
2016-12-14T03:20:15.314Z,16.77
2016-12-14T03:21:24.665Z,17.25
2016-12-14T03:22:34.646Z,17.05
2016-12-14T03:23:44.604Z,17.35
2016-12-14T03:24:54.562Z,16.96
2016-12-14T03:26:04.831Z,16.86
2016-12-14T03:27:15.093Z,17.05
2016-12-14T03:28:25.039Z,17.15
2016-12-14T03:29:35.295Z,17.15
2016-12-14T03:30:45.241Z,16.96
2016-12-14T03:31:54.898Z,17.15
2016-12-14T03:33:04.855Z,17.05
2016-12-14T03:34:15.163Z,17.15
2016-12-14T03:35:25.122Z,17.25
2016-12-14T03:36:35.390Z,17.15
2016-12-14T03:37:45.710Z,17.15
2016-12-14T03:38:55.656Z,17.15
2016-12-14T03:40:06.144Z,17.63
2016-12-14T03:41:16.104Z,17.43
2016-12-14T03:42:26.056Z,17.35
2016-12-14T03:43:36.324Z,17.35
2016-12-14T03:44:46.284Z,17.05
2016-12-14T03:45:55.925Z,17.25
2016-12-14T03:47:06.191Z,17.25
2016-12-14T03:48:16.142Z,17.44
2016-12-14T03:49:25.810Z,17.44
2016-12-14T03:50:36.087Z,17.44
2016-12-14T03:51:46.030Z,17.25
2016-12-14T03:52:56.018Z,17.15
2016-12-14T03:54:05.972Z,17.25
2016-12-14T03:55:15.924Z,17.25
2016-12-14T03:56:26.194Z,17.25
2016-12-14T03:57:35.832Z,17.54
2016-12-14T03:58:45.780Z,17.43
2016-12-14T03:59:56.059Z,17.44
2016-12-14T04:01:05.723Z,17.44
2016-12-14T04:02:15.992Z,17.54
2016-12-14T04:03:26.267Z,17.54
2016-12-14T04:04:36.556Z,17.72
2016-12-14T04:05:46.530Z,17.63
2016-12-14T04:06:56.479Z,17.54
2016-12-14T04:08:06.754Z,17.62
2016-12-14T04:09:17.009Z,17.54
2016-12-14T04:10:27.275Z,17.35
2016-12-14T04:11:36.926Z,17.44
2016-12-14T04:12:47.190Z,17.73
2016-12-14T04:13:57.439Z,17.63
2016-12-14T04:15:07.694Z,17.63
2016-12-14T04:16:17.647Z,17.54
2016-12-14T04:17:27.906Z,17.72
2016-12-14T04:18:38.168Z,17.53
2016-12-14T04:19:47.199Z,17.63
2016-12-14T04:20:57.151Z,17.63
2016-12-14T04:22:07.423Z,17.54
2016-12-14T04:23:16.748Z,17.54
2016-12-14T04:24:26.703Z,17.63
2016-12-14T04:25:36.965Z,17.92
2016-12-14T04:26:46.914Z,18.02
2016-12-14T04:27:57.174Z,18.02
2016-12-14T04:29:07.167Z,17.72
2016-12-14T04:30:17.128Z,17.82
2016-12-14T04:31:27.071Z,17.82
2016-12-14T04:32:37.331Z,17.72
2016-12-14T04:33:46.969Z,17.82
2016-12-14T04:34:57.260Z,17.82
2016-12-14T04:36:07.215Z,17.73
2016-12-14T04:37:17.490Z,17.82
2016-12-14T04:38:27.752Z,17.73
2016-12-14T04:39:38.021Z,17.73
2016-12-14T04:40:47.973Z,17.82
2016-12-14T04:41:57.615Z,17.92
2016-12-14T04:43:07.890Z,17.73
2016-12-14T04:44:18.172Z,17.73
2016-12-14T04:45:28.124Z,17.63
2016-12-14T04:46:38.079Z,17.63
2016-12-14T04:47:48.028Z,17.62
2016-12-14T04:48:57.660Z,17.62
2016-12-14T04:50:07.969Z,17.63
2016-12-14T04:51:18.233Z,17.62
2016-12-14T04:52:28.194Z,17.73
2016-12-14T04:53:38.480Z,17.63
2016-12-14T04:54:48.735Z,17.63
2016-12-14T04:55:58.751Z,17.63
2016-12-14T04:57:08.707Z,17.72
2016-12-14T04:58:18.655Z,17.72
2016-12-14T04:59:28.899Z,17.82
2016-12-14T05:00:38.851Z,18.01
2016-12-14T05:01:48.854Z,17.73
2016-12-14T05:02:58.815Z,17.72
2016-12-14T05:04:09.072Z,17.82
2016-12-14T05:05:19.340Z,17.72
2016-12-14T05:06:29.295Z,17.92
2016-12-14T05:07:39.030Z,17.91
2016-12-14T05:08:48.672Z,17.72
2016-12-14T05:09:58.317Z,17.63
2016-12-14T05:11:08.283Z,17.62
2016-12-14T05:12:18.246Z,18.01
2016-12-14T05:13:28.614Z,18.02
2016-12-14T05:14:38.877Z,17.82
2016-12-14T05:15:48.848Z,17.72
2016-12-14T05:16:58.803Z,17.72
2016-12-14T05:18:08.794Z,17.82
2016-12-14T05:19:19.110Z,17.82
2016-12-14T05:20:29.072Z,17.73
2016-12-14T05:21:39.026Z,17.92
2016-12-14T05:22:48.979Z,17.63
2016-12-14T05:23:59.246Z,18.21
2016-12-14T05:25:09.539Z,18.21
2016-12-14T05:26:19.804Z,18.02
2016-12-14T05:27:29.152Z,18.02
2016-12-14T05:28:39.101Z,17.92
2016-12-14T05:29:48.749Z,17.82
2016-12-14T05:30:58.710Z,17.92
2016-12-14T05:32:08.365Z,18.01
2016-12-14T05:33:18.668Z,18.02
2016-12-14T05:34:28.311Z,17.82
2016-12-14T05:35:38.282Z,18.02
2016-12-14T05:36:47.956Z,18.1
2016-12-14T05:37:58.215Z,18.49
2016-12-14T05:39:08.477Z,18.3
2016-12-14T05:40:18.743Z,18.4
2016-12-14T05:41:28.396Z,18.4
2016-12-14T05:42:38.653Z,18.4
2016-12-14T05:43:48.646Z,18.2
2016-12-14T05:44:58.909Z,18.4
2016-12-14T05:46:09.194Z,18.21
2016-12-14T05:47:19.149Z,18.4
2016-12-14T05:48:29.411Z,18.59
2016-12-14T05:49:39.689Z,18.5
2016-12-14T05:50:49.645Z,18.49
2016-12-14T05:51:59.609Z,18.4
2016-12-14T05:53:09.568Z,18.49
2016-12-14T05:54:19.213Z,18.4
2016-12-14T05:55:29.116Z,18.59
2016-12-14T05:56:39.095Z,18.68
2016-12-14T05:57:49.366Z,18.59
2016-12-14T05:58:59.062Z,18.49
2016-12-14T06:00:09.034Z,18.6
2016-12-14T06:01:19.303Z,18.5
2016-12-14T06:02:29.556Z,18.5
2016-12-14T06:03:39.814Z,18.4
2016-12-14T06:04:50.067Z,18.59
2016-12-14T06:05:59.716Z,18.6
2016-12-14T06:07:09.375Z,18.59
2016-12-14T06:08:19.025Z,18.5
2016-12-14T06:09:29.335Z,18.88
2016-12-14T06:10:39.625Z,19.07
2016-12-14T06:11:49.911Z,18.88
2016-12-14T06:12:59.590Z,18.78
2016-12-14T06:14:09.345Z,18.78
2016-12-14T06:15:19.613Z,18.79
2016-12-14T06:16:29.261Z,18.78
2016-12-14T06:17:39.232Z,18.97
2016-12-14T06:18:48.892Z,18.88
2016-12-14T06:19:59.190Z,18.98
2016-12-14T06:21:09.462Z,18.97
2016-12-14T06:22:19.727Z,19.07
2016-12-14T06:23:29.385Z,18.88
2016-12-14T06:24:39.351Z,18.88
2016-12-14T06:25:49.322Z,18.98
2016-12-14T06:26:59.283Z,18.97
2016-12-14T06:28:09.560Z,18.88
2016-12-14T06:29:19.856Z,18.88
2016-12-14T06:30:30.375Z,18.98
2016-12-14T06:31:40.055Z,18.88
2016-12-14T06:32:50.317Z,19.18
2016-12-14T06:34:00.279Z,19.08
2016-12-14T06:35:10.599Z,19.18
2016-12-14T06:36:20.864Z,19.18
2016-12-14T06:37:30.512Z,19.18
2016-12-14T06:38:40.768Z,19.18
2016-12-14T06:39:50.732Z,19.17
2016-12-14T06:41:00.701Z,19.18
2016-12-14T06:42:11.435Z,19.18
2016-12-14T06:43:21.434Z,19.17
2016-12-14T06:44:31.392Z,19.17
2016-12-14T06:45:41.663Z,19.27
2016-12-14T06:46:51.927Z,19.26
2016-12-14T06:48:01.586Z,19.18
2016-12-14T06:49:11.914Z,19.27
2016-12-14T06:50:21.578Z,19.17
2016-12-14T06:51:31.559Z,19.07
2016-12-14T06:52:41.828Z,19.17
2016-12-14T06:53:52.110Z,19.17
2016-12-14T06:55:02.391Z,19.26
2016-12-14T06:56:12.340Z,19.27
2016-12-14T06:57:22.003Z,19.27
2016-12-14T06:58:32.288Z,19.17
2016-12-14T06:59:42.553Z,19.46
2016-12-14T07:00:52.829Z,19.37
2016-12-14T07:02:02.788Z,19.36
2016-12-14T07:03:13.053Z,19.45
2016-12-14T07:04:23.012Z,19.65
2016-12-14T07:05:33.296Z,19.18
2016-12-14T07:06:43.571Z,19.55
2016-12-14T07:07:53.540Z,19.46
2016-12-14T07:09:03.508Z,19.56
2016-12-14T07:10:13.790Z,19.27
2016-12-14T07:11:23.441Z,19.08
2016-12-14T07:12:33.108Z,19.26
2016-12-14T07:13:43.300Z,19.56
2016-12-14T07:14:53.591Z,19.36
2016-12-14T07:16:03.553Z,19.36
2016-12-14T07:17:13.540Z,19.37
2016-12-14T07:18:23.805Z,19.56
2016-12-14T07:19:34.068Z,19.46
2016-12-14T07:20:44.013Z,19.46
2016-12-14T07:21:54.490Z,19.36
2016-12-14T07:23:04.772Z,19.45
2016-12-14T07:24:14.800Z,19.36
2016-12-14T07:25:24.761Z,19.46
2016-12-14T07:26:35.090Z,19.46
2016-12-14T07:27:45.175Z,19.26
2016-12-14T07:28:55.501Z,19.56
2016-12-14T07:30:05.493Z,19.45
2016-12-14T07:31:15.766Z,19.56
2016-12-14T07:32:26.062Z,19.56
2016-12-14T07:33:36.005Z,19.45
2016-12-14T07:34:46.257Z,19.56
2016-12-14T07:35:56.507Z,19.27
2016-12-14T07:37:05.819Z,19.65
2016-12-14T07:38:15.737Z,19.56
2016-12-14T07:39:25.414Z,19.55
2016-12-14T07:40:35.371Z,19.75
2016-12-14T07:41:45.625Z,19.55
2016-12-14T07:42:55.873Z,19.46
2016-12-14T07:44:05.504Z,19.36
2016-12-14T07:45:15.481Z,19.37
2016-12-14T07:46:25.457Z,19.65
2016-12-14T07:47:35.344Z,19.56
2016-12-14T07:48:45.303Z,19.45
2016-12-14T07:49:54.957Z,19.46
2016-12-14T07:51:04.285Z,19.65
2016-12-14T07:52:14.546Z,19.56
2016-12-14T07:53:24.858Z,19.55
2016-12-14T07:54:34.838Z,19.65
2016-12-14T07:55:45.130Z,19.65
2016-12-14T07:56:55.083Z,19.56
2016-12-14T07:58:05.029Z,19.55
2016-12-14T07:59:15.293Z,19.65
2016-12-14T08:00:25.558Z,19.65
2016-12-14T08:01:35.833Z,19.65
2016-12-14T08:02:45.454Z,19.45
2016-12-14T08:03:55.407Z,19.65
2016-12-14T08:05:05.063Z,19.56
2016-12-14T08:06:15.053Z,19.65
2016-12-14T08:07:25.367Z,19.56
2016-12-14T08:08:35.746Z,19.56
2016-12-14T08:09:46.013Z,19.65
2016-12-14T08:10:56.287Z,19.65
2016-12-14T08:12:06.248Z,19.55
2016-12-14T08:13:15.888Z,19.85
2016-12-14T08:14:25.342Z,19.65
2016-12-14T08:15:35.452Z,19.56
2016-12-14T08:16:45.184Z,19.75
2016-12-14T08:17:55.507Z,19.65
2016-12-14T08:19:05.555Z,19.95
2016-12-14T08:20:16.298Z,19.74
2016-12-14T08:21:26.258Z,19.85
2016-12-14T08:22:36.243Z,19.65
2016-12-14T08:23:46.186Z,19.74
2016-12-14T08:24:56.472Z,19.75
2016-12-14T08:26:06.810Z,19.74
2016-12-14T08:27:16.791Z,19.84
2016-12-14T08:28:27.113Z,19.85
2016-12-14T08:29:37.433Z,19.65
2016-12-14T08:30:47.463Z,19.85
2016-12-14T08:31:57.475Z,19.75
2016-12-14T08:33:07.699Z,19.75
2016-12-14T08:34:17.708Z,19.56
2016-12-14T08:35:27.875Z,19.85
2016-12-14T08:36:38.348Z,19.56
2016-12-14T08:37:48.387Z,19.56
2016-12-14T08:38:58.070Z,19.65
2016-12-14T08:40:08.380Z,19.65
2016-12-14T08:41:17.743Z,19.95
2016-12-14T08:42:28.164Z,20.04
2016-12-14T08:43:38.131Z,20.04
2016-12-14T08:44:48.469Z,19.65
2016-12-14T08:45:58.502Z,20.23
2016-12-14T08:47:08.166Z,20.04
2016-12-14T08:48:18.207Z,20.14
2016-12-14T08:49:28.292Z,20.04
2016-12-14T08:50:38.242Z,20.23
2016-12-14T08:51:48.698Z,20.33
2016-12-14T08:52:58.700Z,20.23
2016-12-14T08:54:08.656Z,20.43
2016-12-14T08:55:18.627Z,20.33
2016-12-14T08:56:28.309Z,20.33
2016-12-14T08:57:38.598Z,20.53
2016-12-14T08:58:48.639Z,20.33
2016-12-14T08:59:58.911Z,20.33
2016-12-14T09:01:08.259Z,20.23
2016-12-14T09:02:18.467Z,20.43
2016-12-14T09:03:28.505Z,20.23
2016-12-14T09:04:38.835Z,20.33
2016-12-14T09:05:48.793Z,20.14
2016-12-14T09:06:58.757Z,20.23
2016-12-14T09:08:08.410Z,20.14
2016-12-14T09:09:18.700Z,19.95
2016-12-14T09:10:29.059Z,20.14
2016-12-14T09:11:39.010Z,20.23
2016-12-14T09:12:48.677Z,20.14
2016-12-14T09:13:58.642Z,20.23
2016-12-14T09:15:08.718Z,20.14
2016-12-14T09:16:18.806Z,20.04
2016-12-14T09:17:29.106Z,19.95
2016-12-14T09:18:39.317Z,19.85
2016-12-14T09:19:49.294Z,19.75
2016-12-14T09:20:59.626Z,19.65
2016-12-14T09:22:09.343Z,19.85
2016-12-14T09:23:19.008Z,19.65
2016-12-14T09:24:29.005Z,19.65
2016-12-14T09:25:38.988Z,19.85
2016-12-14T09:26:49.054Z,19.75
2016-12-14T09:27:59.088Z,19.75
2016-12-14T09:29:09.077Z,19.75
2016-12-14T09:30:19.404Z,19.75
2016-12-14T09:31:29.417Z,19.95
2016-12-14T09:32:39.393Z,19.95
2016-12-14T09:33:49.734Z,19.65
2016-12-14T09:35:00.002Z,19.75
2016-12-14T09:36:09.653Z,19.75
2016-12-14T09:37:19.932Z,19.95
2016-12-14T09:38:29.932Z,19.75
2016-12-14T09:39:40.535Z,19.95
2016-12-14T09:40:50.828Z,19.95
2016-12-14T09:42:01.157Z,19.95
2016-12-14T09:43:11.157Z,19.85
2016-12-14T09:44:21.461Z,19.65
2016-12-14T09:45:31.756Z,19.75
2016-12-14T09:46:42.066Z,19.65
2016-12-14T09:47:52.377Z,19.95
2016-12-14T09:49:02.351Z,19.56
2016-12-14T09:50:12.367Z,19.95
2016-12-14T09:51:22.711Z,19.65
2016-12-14T09:52:32.700Z,19.65
2016-12-14T09:53:43.003Z,19.75
2016-12-14T09:54:53.321Z,19.75
2016-12-14T09:56:03.304Z,19.75
2016-12-14T09:57:13.288Z,19.75
2016-12-14T09:58:23.298Z,19.75
2016-12-14T09:59:33.276Z,19.95
2016-12-14T10:00:43.262Z,19.95
2016-12-14T10:01:53.595Z,20.14
2016-12-14T10:03:03.671Z,20.23
2016-12-14T10:04:13.986Z,20.23
2016-12-14T10:05:24.002Z,20.53
2016-12-14T10:06:33.701Z,20.62
2016-12-14T10:07:44.033Z,20.43
2016-12-14T10:08:54.364Z,20.33
2016-12-14T10:10:04.078Z,20.23
2016-12-14T10:11:13.769Z,20.23
2016-12-14T10:12:23.778Z,20.43
2016-12-14T10:13:34.103Z,20.23
2016-12-14T10:14:44.459Z,19.95
2016-12-14T10:15:54.413Z,19.95
2016-12-14T10:17:04.071Z,19.67
2016-12-14T10:18:14.040Z,19.85
2016-12-14T10:19:24.037Z,19.85
2016-12-14T10:20:34.254Z,19.75
2016-12-14T10:21:44.237Z,19.76
2016-12-14T10:22:53.883Z,19.65
2016-12-14T10:24:03.848Z,19.67
2016-12-14T10:25:13.496Z,19.85
2016-12-14T10:26:23.771Z,19.85
2016-12-14T10:27:33.737Z,19.75
2016-12-14T10:28:43.835Z,19.86
2016-12-14T10:29:53.803Z,19.75
2016-12-14T10:31:03.496Z,19.95
2016-12-14T10:32:13.455Z,19.76
2016-12-14T10:33:23.708Z,19.95
2016-12-14T10:34:33.653Z,19.67
2016-12-14T10:35:43.916Z,19.95
2016-12-14T10:36:53.880Z,19.67
2016-12-14T10:38:03.859Z,19.95
2016-12-14T10:39:14.137Z,19.95
2016-12-14T10:40:24.392Z,20.25
2016-12-14T10:41:34.350Z,19.86
2016-12-14T10:42:44.626Z,20.43
2016-12-14T10:43:54.895Z,19.95
2016-12-14T10:45:05.211Z,20.25
2016-12-14T10:46:15.177Z,19.95
2016-12-14T10:47:25.436Z,20.15
2016-12-14T10:48:35.697Z,20.05
2016-12-14T10:49:45.967Z,20.05
2016-12-14T10:50:55.925Z,20.15
2016-12-14T10:52:05.887Z,20.43
2016-12-14T10:53:15.562Z,20.25
2016-12-14T10:54:25.871Z,20.15
2016-12-14T10:55:35.867Z,20.15
2016-12-14T10:56:45.512Z,20.05
2016-12-14T10:57:55.465Z,19.95
2016-12-14T10:59:05.135Z,20.14
2016-12-14T11:00:15.141Z,19.86
2016-12-14T11:01:24.469Z,19.95
2016-12-14T11:02:34.139Z,19.67
2016-12-14T11:03:44.434Z,19.95
2016-12-14T11:04:54.079Z,19.95
2016-12-14T11:06:04.361Z,19.86
2016-12-14T11:07:14.319Z,19.67
2016-12-14T11:08:24.296Z,19.76
2016-12-14T11:09:34.271Z,19.86
2016-12-14T11:10:44.255Z,19.86
2016-12-14T11:11:54.537Z,19.67
2016-12-14T11:13:04.863Z,19.67
2016-12-14T11:14:15.139Z,19.67
2016-12-14T11:15:25.176Z,19.86
2016-12-14T11:16:35.507Z,19.95
2016-12-14T11:17:45.618Z,19.86
2016-12-14T11:18:55.971Z,19.86
2016-12-14T11:20:05.965Z,19.86
2016-12-14T11:21:16.265Z,20.25
2016-12-14T11:22:26.220Z,20.25
2016-12-14T11:23:36.226Z,19.76
2016-12-14T11:24:46.278Z,19.67
2016-12-14T11:25:56.586Z,19.86
2016-12-14T11:27:06.240Z,19.67
2016-12-14T11:28:15.998Z,19.86
2016-12-14T11:29:25.705Z,19.95
2016-12-14T11:30:35.715Z,20.05
2016-12-14T11:31:45.085Z,19.57
2016-12-14T11:32:54.723Z,19.86
2016-12-14T11:34:04.695Z,19.67
2016-12-14T11:35:14.719Z,19.86
2016-12-14T11:36:24.700Z,20.25
2016-12-14T11:37:34.663Z,19.95
2016-12-14T11:38:44.953Z,20.05
2016-12-14T11:39:54.967Z,19.76
2016-12-14T11:41:04.966Z,20.25
2016-12-14T11:42:14.922Z,20.43
2016-12-14T11:43:24.293Z,20.25
2016-12-14T11:44:34.285Z,20.63
2016-12-14T11:45:44.551Z,20.63
2016-12-14T11:46:54.206Z,20.53
2016-12-14T11:48:04.467Z,20.53
2016-12-14T11:49:14.753Z,20.53
2016-12-14T11:50:25.044Z,20.34
2016-12-14T11:51:35.066Z,20.25
2016-12-14T11:52:45.361Z,20.43
2016-12-14T11:53:55.655Z,20.34
2016-12-14T11:55:05.632Z,20.25
2016-12-14T11:56:15.924Z,20.34
2016-12-14T11:57:26.267Z,20.34
2016-12-14T11:58:36.661Z,20.43
2016-12-14T11:59:46.957Z,20.34
2016-12-14T12:00:57.239Z,20.43
2016-12-14T12:02:07.201Z,20.63
2016-12-14T12:03:17.157Z,20.73
2016-12-14T12:04:26.852Z,20.53
2016-12-14T12:05:36.825Z,20.53
2016-12-14T12:06:47.105Z,20.34
2016-12-14T12:07:57.089Z,20.34
2016-12-14T12:09:07.354Z,20.34
2016-12-14T12:10:17.118Z,20.34
2016-12-14T12:11:26.795Z,20.25
2016-12-14T12:12:37.191Z,20.53
2016-12-14T12:13:47.486Z,20.25
2016-12-14T12:14:57.467Z,20.43
2016-12-14T12:16:07.537Z,20.43
2016-12-14T12:17:17.230Z,20.53
2016-12-14T12:18:27.208Z,20.73
2016-12-14T12:19:36.897Z,20.63
2016-12-14T12:20:47.188Z,20.92
2016-12-14T12:21:56.974Z,20.92
2016-12-14T12:23:07.268Z,20.73
2016-12-14T12:24:17.239Z,20.92
2016-12-14T12:25:26.919Z,21.11
2016-12-14T12:26:37.200Z,21.21
2016-12-14T12:27:47.022Z,21.01
2016-12-14T12:28:57.310Z,20.92
2016-12-14T12:30:07.304Z,21.01
2016-12-14T12:31:17.601Z,20.92
2016-12-14T12:32:27.905Z,20.83
2016-12-14T12:33:38.293Z,20.34
2016-12-14T12:34:48.283Z,20.73
2016-12-14T12:35:58.862Z,20.34
2016-12-14T12:37:08.862Z,20.63
2016-12-14T12:38:19.233Z,20.53
2016-12-14T12:39:29.326Z,20.25
2016-12-14T12:40:39.297Z,19.95
2016-12-14T12:41:49.588Z,20.25
2016-12-14T12:42:59.569Z,20.15
2016-12-14T12:44:09.851Z,19.76
2016-12-14T12:45:19.905Z,19.95
2016-12-14T12:46:29.883Z,19.95
2016-12-14T12:47:40.147Z,20.05
2016-12-14T12:48:50.125Z,19.86
2016-12-14T12:50:00.091Z,19.95
2016-12-14T12:51:10.152Z,19.57
2016-12-14T12:52:20.126Z,19.95
2016-12-14T12:53:30.408Z,20.05
2016-12-14T12:54:40.711Z,20.15
2016-12-14T12:55:50.705Z,20.25
2016-12-14T12:57:01.143Z,19.67
2016-12-14T12:58:11.427Z,19.95
2016-12-14T12:59:21.722Z,19.86
2016-12-14T13:00:32.005Z,19.95
2016-12-14T13:01:42.298Z,20.15
2016-12-14T13:02:52.384Z,20.15
2016-12-14T13:04:02.676Z,20.15
2016-12-14T13:05:12.945Z,20.25
2016-12-14T13:06:22.928Z,19.67
2016-12-14T13:07:33.223Z,19.86
2016-12-14T13:08:43.297Z,19.76
2016-12-14T13:09:53.734Z,19.67
2016-12-14T13:11:04.436Z,19.95
2016-12-14T13:12:14.774Z,20.15
2016-12-14T13:13:25.126Z,20.05
2016-12-14T13:14:35.521Z,20.25
2016-12-14T13:15:45.822Z,19.76
2016-12-14T13:22:41.156Z,20.25
2016-12-14T13:23:51.136Z,20.23
2016-12-14T13:25:01.098Z,20.15
2016-12-14T13:26:11.383Z,19.76
2016-12-14T13:27:21.773Z,19.76
2016-12-14T13:28:31.765Z,20.15
2016-12-14T13:29:41.728Z,19.95
2016-12-14T13:30:51.757Z,19.76
2016-12-14T13:32:01.735Z,19.95
2016-12-14T13:33:12.109Z,19.95
2016-12-14T13:34:22.067Z,20.04
2016-12-14T13:35:32.352Z,19.95
2016-12-14T13:36:42.346Z,19.75
2016-12-14T13:37:52.652Z,20.34
2016-12-14T13:39:03.099Z,20.05
2016-12-14T13:40:12.482Z,20.15
2016-12-14T13:41:22.764Z,20.14
2016-12-14T13:42:32.728Z,20.15
2016-12-14T13:43:43.017Z,20.15
2016-12-14T13:44:52.735Z,20.33
2016-12-14T13:46:03.033Z,20.25
2016-12-14T13:47:13.372Z,20.25
2016-12-14T13:48:23.725Z,20.14
2016-12-14T13:49:34.020Z,20.15
2016-12-14T13:50:44.323Z,20.04
2016-12-14T13:51:54.308Z,19.95
2016-12-14T13:53:04.287Z,19.86
2016-12-14T13:54:14.578Z,19.86
2016-12-14T13:55:24.866Z,19.56
2016-12-14T13:56:35.160Z,19.57
2016-12-14T13:57:45.125Z,19.46
2016-12-14T13:58:54.787Z,19.37
2016-12-14T14:00:04.771Z,19.28
2016-12-14T14:01:14.449Z,19.47
2016-12-14T14:02:24.763Z,19.27
2016-12-14T14:03:34.748Z,19.47
2016-12-14T14:04:44.764Z,19.57
2016-12-14T14:05:55.099Z,19.27
2016-12-14T14:07:05.310Z,19.37
2016-12-14T14:08:15.286Z,19.28
2016-12-14T14:09:24.949Z,19.08
2016-12-14T14:10:34.921Z,19.27
2016-12-14T14:11:44.580Z,19.08
2016-12-14T14:12:54.239Z,19.08
2016-12-14T14:14:04.239Z,19.18
2016-12-14T14:15:14.239Z,18.88
2016-12-14T14:16:23.921Z,18.88
2016-12-14T14:17:33.589Z,18.88
2016-12-14T14:18:43.877Z,18.98
2016-12-14T14:19:54.149Z,18.88
2016-12-14T14:21:04.437Z,18.88
2016-12-14T14:22:14.411Z,19.08
2016-12-14T14:23:24.366Z,18.88
2016-12-14T14:24:34.640Z,18.6
2016-12-14T14:25:44.610Z,18.6
2016-12-14T14:26:54.602Z,18.6
2016-12-14T14:28:04.583Z,18.5
2016-12-14T14:29:14.577Z,18.7
2016-12-14T14:30:24.597Z,18.5
2016-12-14T14:31:33.950Z,18.4
2016-12-14T14:32:43.613Z,18.6
2016-12-14T14:33:53.889Z,18.5
2016-12-14T14:35:04.184Z,18.6
2016-12-14T14:36:13.909Z,18.6
2016-12-14T14:37:23.592Z,18.7
2016-12-14T14:38:33.562Z,18.5
2016-12-14T14:39:43.845Z,18.5
2016-12-14T14:40:54.119Z,18.5
2016-12-14T14:42:03.834Z,18.7
2016-12-14T14:43:13.864Z,18.5
2016-12-14T14:44:23.905Z,18.6
2016-12-14T14:45:34.187Z,18.5
2016-12-14T14:46:44.465Z,18.5
2016-12-14T14:47:54.129Z,18.6
2016-12-14T14:49:04.417Z,18.5
2016-12-14T14:50:14.690Z,18.6
2016-12-14T14:51:24.981Z,18.5
2016-12-14T14:52:34.939Z,18.5
2016-12-14T14:53:44.913Z,18.5
2016-12-14T14:54:55.185Z,18.5
2016-12-14T14:56:05.467Z,18.3
2016-12-14T14:57:15.751Z,18.5
2016-12-14T14:58:26.043Z,18.6
2016-12-14T14:59:36.024Z,18.5
2016-12-14T15:00:46.023Z,18.3
2016-12-14T15:01:55.368Z,18.5
2016-12-14T15:03:05.659Z,18.4
2016-12-14T15:04:15.968Z,18.3
2016-12-14T15:05:25.950Z,18.02
2016-12-14T15:06:36.211Z,17.92
2016-12-14T15:07:46.187Z,18.02
2016-12-14T15:08:56.147Z,18.02
2016-12-14T15:10:06.177Z,18.12
2016-12-14T15:11:16.457Z,18.5